Share

Frederick, SD

8:57 AM CDT on April 23, 2014 (GMT -0500)
Willow Creek Lake (KSDFREDE2) Elev 1411 ft | 45.72 °N, 98.61 °W | Change Station

Current weather conditions updated 49 minutes ago

Light Rain
Light Rain
47.1 °F
Feels Like 41 °F
N
14.0
Wind Variable Wind from WNW
Gusts 22.0 mph
Sunrise 6:34 AM
Sunset 8:31 PM
Moon Last Quarter

Today is forecast to be Cooler than yesterday. Afternoon showers, windy.

Pressure 29.77 in
Visibility 10.0 miles
Clouds Few 6000 ft
Mostly Cloudy 9000 ft
Overcast 11000 ft
Windchill 41 °F
Dew Point 41 °F
Humidity 79%
Rainfall 0.04 in
Snow Depth Not available.
UV 1 out of 16
Pollen 7.60 out of 12
Air Quality Not available.
Flu Activity Sporadic
METAR KABR 231353Z AUTO 14019G27KT 10SM -RA FEW060 BKN090 OVC110 09/03 A2976 RMK AO2 PK WND 14029/1342 RAE15B41 SLP080 P0000 T00940033

More Conditions Fewer Conditions

Pressure 29.77 in
Visibility 10.0 miles
Clouds Few 6000 ft
Mostly Cloudy 9000 ft
Overcast 11000 ft
Windchill 41 °F
Dew Point 41 °F
Humidity 79%
Rainfall 0.04 in
Snow Depth Not available.
UV 1 out of 16
Pollen 7.60 out of 12
Air Quality Not available.
Flu Activity Sporadic
METAR KABR 231353Z AUTO 14019G27KT 10SM -RA FEW060 BKN090 OVC110 09/03 A2976 RMK AO2 PK WND 14029/1342 RAE15B41 SLP080 P0000 T00940033

More Conditions Fewer Conditions

10-Day Weather Forecast

Almanac

Astronomy

Apr. 23, 2014 Rise Set
Actual Time 6:34 AM CDT 8:31 PM CDT
Civil Twilight 6:02 AM CDT 9:03 PM CDT
Nautical Twilight 5:22 AM CDT 9:42 PM CDT
Astronomical Twilight 4:39 AM CDT 10:26 PM CDT
Moon 3:26 AM CDT 2:23 PM CDT
Length of Visible Light 15h 01m
Length of Day
13h 57m
Tomorrow will be 2m 58s longer.
Last Quarter, 36% of the Moon is Illuminated
Today
Last Quarter
Apr 29
New
May 6
First Quarter
May 14
Full
May 21
Last Quarter

Today's Extremes

State Highs State Lows

Community

  • spring flowers
    spring flowers
  • Earth Day Spectrum Ove' Blue
    Earth Day Spectrum Ove' Blue
  • BARN B&W
    BARN B&W
  • April Sunset
    April Sunset
  • Waiting..
    Waiting..

WunderPhotos

Upload Photos

1,704,278 photos uploaded!

Nearby

Snow Depth

Station Depth Elevation
North Rapid Creek 12 in 6130 ft
Blind Park 13 in 6890 ft

Coastal Water Temperatures

Place Temperature
No Stations Reporting

Earthquake Activity

City Distance Mag. Time & Date
No recent earthquake activity has been reported nearby.
Minimum magnitude displayed is 2.5.

Nearby Weather Stations

Station Location Temp. Windchill Dew Point Humidity Wind Precip. Elev Updated Type
Willow Creek Lake, Frederick, SD 47.1 °F 41 °F 41 °F 79% WNW  at  14.0 mph 0.02 in / hr 1411 ft 8:08 AM CDT Normal
State line, Leola, SD 44.8 °F 43 °F 40 °F 83% North  at  4.2 mph - / hr 1614 ft 8:52 AM CDT Normal
Monango, ND 45.4 °F 38 °F 41 °F 85% SSE  at  20.0 mph 0.01 in / hr 1479 ft 8:52 AM CDT Normal

Show More Stations Show Fewer Stations

What do you think?

We're not finished. Please let us know what you like, what you don't like, and what you are still missing.